sensor_id;sensor_type;location;lat;lon;timestamp;pressure;altitude;pressure_sealevel;temperature;humidity
35892;BME280;21993;42.672;23.296;2023-03-23T00:01:51;94698.75;;;9.44;72.68
35892;BME280;21993;42.672;23.296;2023-03-23T00:04:17;94693.66;;;9.42;72.66
35892;BME280;21993;42.672;23.296;2023-03-23T00:06:43;94688.53;;;9.41;72.76
35892;BME280;21993;42.672;23.296;2023-03-23T00:09:11;94691.09;;;9.31;72.86
35892;BME280;21993;42.672;23.296;2023-03-23T00:11:37;94687.13;;;9.16;73.05
35892;BME280;21993;42.672;23.296;2023-03-23T00:14:04;94688.03;;;9.05;73.53
35892;BME280;21993;42.672;23.296;2023-03-23T00:16:31;94690.19;;;9.21;73.00
35892;BME280;21993;42.672;23.296;2023-03-23T00:19:05;94689.22;;;9.22;72.69
35892;BME280;21993;42.672;23.296;2023-03-23T00:21:34;94692.69;;;9.22;72.93
35892;BME280;21993;42.672;23.296;2023-03-23T00:24:07;94689.69;;;9.27;72.55
35892;BME280;21993;42.672;23.296;2023-03-23T00:26:38;94688.88;;;9.26;72.20
35892;BME280;21993;42.672;23.296;2023-03-23T00:29:20;94692.81;;;9.21;72.54
35892;BME280;21993;42.672;23.296;2023-03-23T00:31:49;94686.69;;;9.11;72.56
35892;BME280;21993;42.672;23.296;2023-03-23T00:34:20;94692.09;;;8.77;74.08
35892;BME280;21993;42.672;23.296;2023-03-23T00:36:47;94694.91;;;8.85;73.93
35892;BME280;21993;42.672;23.296;2023-03-23T00:39:13;94707.81;;;8.98;72.93
35892;BME280;21993;42.672;23.296;2023-03-23T00:41:42;94711.22;;;8.78;73.35
35892;BME280;21993;42.672;23.296;2023-03-23T00:44:07;94713.16;;;8.64;73.78
35892;BME280;21993;42.672;23.296;2023-03-23T00:46:34;94720.16;;;8.75;73.04
35892;BME280;21993;42.672;23.296;2023-03-23T00:48:59;94703.50;;;8.76;73.64
35892;BME280;21993;42.672;23.296;2023-03-23T00:51:25;94712.00;;;8.57;73.78
35892;BME280;21993;42.672;23.296;2023-03-23T00:53:51;94713.03;;;8.66;73.64
35892;BME280;21993;42.672;23.296;2023-03-23T00:56:16;94717.34;;;8.67;73.62
35892;BME280;21993;42.672;23.296;2023-03-23T00:58:42;94724.81;;;8.71;73.86
35892;BME280;21993;42.672;23.296;2023-03-23T01:01:08;94720.59;;;8.80;73.71
35892;BME280;21993;42.672;23.296;2023-03-23T01:03:35;94723.28;;;8.69;73.41
35892;BME280;21993;42.672;23.296;2023-03-23T01:06:05;94725.72;;;8.82;73.17
35892;BME280;21993;42.672;23.296;2023-03-23T01:08:31;94728.94;;;8.85;73.53
35892;BME280;21993;42.672;23.296;2023-03-23T01:11:06;94715.16;;;8.83;73.32
35892;BME280;21993;42.672;23.296;2023-03-23T01:13:32;94730.94;;;8.82;73.61
35892;BME280;21993;42.672;23.296;2023-03-23T01:15:58;94717.50;;;8.86;73.48
35892;BME280;21993;42.672;23.296;2023-03-23T01:18:23;94725.34;;;8.86;74.72
35892;BME280;21993;42.672;23.296;2023-03-23T01:20:48;94714.28;;;8.83;74.82
35892;BME280;21993;42.672;23.296;2023-03-23T01:23:14;94719.84;;;8.89;74.88
35892;BME280;21993;42.672;23.296;2023-03-23T01:25:39;94710.56;;;8.96;74.71
35892;BME280;21993;42.672;23.296;2023-03-23T01:28:05;94712.91;;;8.99;74.07
35892;BME280;21993;42.672;23.296;2023-03-23T01:30:30;94718.03;;;9.01;74.36
35892;BME280;21993;42.672;23.296;2023-03-23T01:32:56;94713.31;;;8.95;74.64
35892;BME280;21993;42.672;23.296;2023-03-23T01:35:21;94707.81;;;8.98;74.60
35892;BME280;21993;42.672;23.296;2023-03-23T01:37:47;94709.72;;;8.96;74.31
35892;BME280;21993;42.672;23.296;2023-03-23T01:40:15;94706.84;;;8.99;75.01
35892;BME280;21993;42.672;23.296;2023-03-23T01:42:41;94706.47;;;9.03;74.56
35892;BME280;21993;42.672;23.296;2023-03-23T01:45:34;94696.56;;;9.07;74.72
35892;BME280;21993;42.672;23.296;2023-03-23T01:48:10;94699.25;;;8.96;74.81
35892;BME280;21993;42.672;23.296;2023-03-23T01:53:25;94696.13;;;9.02;74.20
35892;BME280;21993;42.672;23.296;2023-03-23T01:55:54;94697.34;;;8.98;74.37
35892;BME280;21993;42.672;23.296;2023-03-23T01:58:26;94692.50;;;8.93;74.37
35892;BME280;21993;42.672;23.296;2023-03-23T02:00:54;94689.75;;;8.95;74.62
35892;BME280;21993;42.672;23.296;2023-03-23T02:03:21;94694.41;;;8.91;74.27
35892;BME280;21993;42.672;23.296;2023-03-23T02:05:49;94688.97;;;8.83;74.66
35892;BME280;21993;42.672;23.296;2023-03-23T02:08:16;94692.41;;;8.84;74.39
35892;BME280;21993;42.672;23.296;2023-03-23T02:10:43;94692.31;;;8.74;75.36
35892;BME280;21993;42.672;23.296;2023-03-23T02:13:10;94694.44;;;8.80;75.06
35892;BME280;21993;42.672;23.296;2023-03-23T02:15:54;94694.50;;;8.90;75.02
35892;BME280;21993;42.672;23.296;2023-03-23T02:18:30;94692.03;;;8.88;75.22
35892;BME280;21993;42.672;23.296;2023-03-23T02:26:38;94690.84;;;8.92;74.59
35892;BME280;21993;42.672;23.296;2023-03-23T02:31:56;94690.84;;;8.92;75.04
35892;BME280;21993;42.672;23.296;2023-03-23T02:34:29;94683.81;;;8.93;74.15
35892;BME280;21993;42.672;23.296;2023-03-23T02:37:03;94694.72;;;8.98;74.30
35892;BME280;21993;42.672;23.296;2023-03-23T02:39:47;94696.13;;;9.02;73.82
35892;BME280;21993;42.672;23.296;2023-03-23T02:42:21;94693.75;;;8.99;73.58
35892;BME280;21993;42.672;23.296;2023-03-23T02:44:49;94693.06;;;8.97;73.37
35892;BME280;21993;42.672;23.296;2023-03-23T02:47:21;94701.59;;;8.99;73.93
35892;BME280;21993;42.672;23.296;2023-03-23T02:49:50;94693.31;;;8.94;72.87
35892;BME280;21993;42.672;23.296;2023-03-23T02:52:22;94695.69;;;8.97;73.41
35892;BME280;21993;42.672;23.296;2023-03-23T02:54:51;94696.91;;;8.93;73.33
35892;BME280;21993;42.672;23.296;2023-03-23T02:57:19;94709.72;;;8.96;72.97
35892;BME280;21993;42.672;23.296;2023-03-23T02:59:45;94712.47;;;8.94;73.73
35892;BME280;21993;42.672;23.296;2023-03-23T03:02:17;94713.56;;;8.92;73.41
35892;BME280;21993;42.672;23.296;2023-03-23T03:04:53;94721.41;;;8.92;74.18
35892;BME280;21993;42.672;23.296;2023-03-23T03:10:28;94722.47;;;8.89;74.34
35892;BME280;21993;42.672;23.296;2023-03-23T03:13:18;94736.91;;;8.84;74.11
35892;BME280;21993;42.672;23.296;2023-03-23T03:16:00;94738.38;;;8.77;73.97
35892;BME280;21993;42.672;23.296;2023-03-23T03:20:59;94738.28;;;8.67;74.13
35892;BME280;21993;42.672;23.296;2023-03-23T03:23:27;94740.69;;;8.59;74.71
35892;BME280;21993;42.672;23.296;2023-03-23T03:25:54;94737.09;;;8.60;75.38
35892;BME280;21993;42.672;23.296;2023-03-23T03:28:23;94741.25;;;8.62;75.18
35892;BME280;21993;42.672;23.296;2023-03-23T03:30:53;94740.72;;;8.36;75.68
35892;BME280;21993;42.672;23.296;2023-03-23T03:33:21;94739.63;;;8.39;75.50
35892;BME280;21993;42.672;23.296;2023-03-23T03:35:51;94750.91;;;8.28;75.46
35892;BME280;21993;42.672;23.296;2023-03-23T03:38:18;94749.72;;;8.21;76.07
35892;BME280;21993;42.672;23.296;2023-03-23T03:40:44;94757.47;;;8.34;76.64
35892;BME280;21993;42.672;23.296;2023-03-23T03:43:10;94750.44;;;8.45;75.56
35892;BME280;21993;42.672;23.296;2023-03-23T03:45:35;94749.03;;;8.41;75.47
35892;BME280;21993;42.672;23.296;2023-03-23T03:48:01;94749.13;;;8.51;75.12
35892;BME280;21993;42.672;23.296;2023-03-23T03:50:27;94743.69;;;8.43;75.93
35892;BME280;21993;42.672;23.296;2023-03-23T03:52:52;94744.25;;;8.46;75.40
35892;BME280;21993;42.672;23.296;2023-03-23T03:55:18;94741.63;;;8.46;75.34
35892;BME280;21993;42.672;23.296;2023-03-23T03:57:43;94739.75;;;8.37;75.76
35892;BME280;21993;42.672;23.296;2023-03-23T04:00:10;94740.00;;;8.12;76.36
35892;BME280;21993;42.672;23.296;2023-03-23T04:02:43;94739.75;;;8.04;76.58
35892;BME280;21993;42.672;23.296;2023-03-23T04:05:10;94733.47;;;7.95;76.84
35892;BME280;21993;42.672;23.296;2023-03-23T04:07:36;94737.97;;;8.15;76.41
35892;BME280;21993;42.672;23.296;2023-03-23T04:10:04;94735.13;;;8.18;75.51
35892;BME280;21993;42.672;23.296;2023-03-23T04:12:30;94734.28;;;7.96;76.38
35892;BME280;21993;42.672;23.296;2023-03-23T04:14:56;94733.47;;;8.17;76.96
35892;BME280;21993;42.672;23.296;2023-03-23T04:17:22;94743.19;;;8.04;76.83
35892;BME280;21993;42.672;23.296;2023-03-23T04:19:47;94735.94;;;8.19;76.30
35892;BME280;21993;42.672;23.296;2023-03-23T04:22:13;94733.22;;;8.21;75.62
35892;BME280;21993;42.672;23.296;2023-03-23T04:24:38;94744.16;;;8.26;75.88
35892;BME280;21993;42.672;23.296;2023-03-23T04:27:04;94750.44;;;8.34;75.61
35892;BME280;21993;42.672;23.296;2023-03-23T04:29:30;94745.44;;;8.31;75.84
35892;BME280;21993;42.672;23.296;2023-03-23T04:31:55;94743.66;;;8.32;75.08
35892;BME280;21993;42.672;23.296;2023-03-23T04:34:21;94745.34;;;8.33;75.75
35892;BME280;21993;42.672;23.296;2023-03-23T04:36:47;94737.25;;;8.36;74.67
35892;BME280;21993;42.672;23.296;2023-03-23T04:39:12;94738.09;;;8.36;75.01
35892;BME280;21993;42.672;23.296;2023-03-23T04:41:39;94747.94;;;8.33;74.88
35892;BME280;21993;42.672;23.296;2023-03-23T04:44:05;94748.78;;;8.33;75.13
35892;BME280;21993;42.672;23.296;2023-03-23T04:46:32;94748.88;;;8.32;74.75
35892;BME280;21993;42.672;23.296;2023-03-23T04:48:58;94744.38;;;8.34;74.47
35892;BME280;21993;42.672;23.296;2023-03-23T04:51:25;94746.38;;;8.30;76.11
35892;BME280;21993;42.672;23.296;2023-03-23T04:53:51;94752.81;;;8.26;75.81
35892;BME280;21993;42.672;23.296;2023-03-23T04:56:16;94758.63;;;8.30;75.62
35892;BME280;21993;42.672;23.296;2023-03-23T04:58:42;94761.75;;;8.35;75.56
35892;BME280;21993;42.672;23.296;2023-03-23T05:01:08;94758.19;;;8.36;75.76
35892;BME280;21993;42.672;23.296;2023-03-23T05:03:34;94756.97;;;8.40;75.50
35892;BME280;21993;42.672;23.296;2023-03-23T05:06:02;94761.63;;;8.25;76.14
35892;BME280;21993;42.672;23.296;2023-03-23T05:08:27;94765.53;;;8.19;76.69
35892;BME280;21993;42.672;23.296;2023-03-23T05:10:55;94754.94;;;8.32;75.62
35892;BME280;21993;42.672;23.296;2023-03-23T05:13:21;94767.19;;;8.32;76.46
35892;BME280;21993;42.672;23.296;2023-03-23T05:15:47;94777.44;;;8.35;75.89
35892;BME280;21993;42.672;23.296;2023-03-23T05:18:13;94772.44;;;8.43;76.10
35892;BME280;21993;42.672;23.296;2023-03-23T05:20:38;94776.72;;;8.44;76.37
35892;BME280;21993;42.672;23.296;2023-03-23T05:23:04;94768.19;;;8.42;75.51
35892;BME280;21993;42.672;23.296;2023-03-23T05:25:30;94780.53;;;8.40;75.96
35892;BME280;21993;42.672;23.296;2023-03-23T05:27:57;94784.44;;;8.45;75.76
35892;BME280;21993;42.672;23.296;2023-03-23T05:30:24;94777.91;;;8.51;75.34
35892;BME280;21993;42.672;23.296;2023-03-23T05:32:49;94787.03;;;8.57;75.64
35892;BME280;21993;42.672;23.296;2023-03-23T05:35:19;94796.78;;;8.55;75.86
35892;BME280;21993;42.672;23.296;2023-03-23T05:37:46;94797.03;;;8.63;75.96
35892;BME280;21993;42.672;23.296;2023-03-23T05:40:12;94790.59;;;8.67;74.98
35892;BME280;21993;42.672;23.296;2023-03-23T05:42:39;94794.53;;;8.61;74.33
35892;BME280;21993;42.672;23.296;2023-03-23T05:45:10;94795.50;;;8.60;74.72
35892;BME280;21993;42.672;23.296;2023-03-23T05:47:37;94796.00;;;8.43;75.00
35892;BME280;21993;42.672;23.296;2023-03-23T05:50:03;94800.72;;;8.49;76.02
35892;BME280;21993;42.672;23.296;2023-03-23T05:52:30;94796.94;;;8.53;76.02
35892;BME280;21993;42.672;23.296;2023-03-23T05:54:57;94802.41;;;8.16;76.80
35892;BME280;21993;42.672;23.296;2023-03-23T05:57:23;94807.38;;;8.31;77.58
35892;BME280;21993;42.672;23.296;2023-03-23T05:59:48;94800.72;;;8.49;76.35
35892;BME280;21993;42.672;23.296;2023-03-23T06:02:14;94803.47;;;8.59;76.41
35892;BME280;21993;42.672;23.296;2023-03-23T06:04:40;94809.03;;;8.65;75.88
35892;BME280;21993;42.672;23.296;2023-03-23T06:07:06;94799.72;;;8.84;75.89
35892;BME280;21993;42.672;23.296;2023-03-23T06:09:32;94799.72;;;8.84;75.05
35892;BME280;21993;42.672;23.296;2023-03-23T06:11:57;94817.53;;;8.90;75.27
35892;BME280;21993;42.672;23.296;2023-03-23T06:14:23;94808.03;;;8.89;74.76
35892;BME280;21993;42.672;23.296;2023-03-23T06:16:48;94807.41;;;8.96;75.37
35892;BME280;21993;42.672;23.296;2023-03-23T06:19:14;94811.56;;;8.99;75.14
35892;BME280;21993;42.672;23.296;2023-03-23T06:21:41;94814.56;;;8.94;76.45
35892;BME280;21993;42.672;23.296;2023-03-23T06:24:06;94808.13;;;8.98;76.02
35892;BME280;21993;42.672;23.296;2023-03-23T06:26:34;94810.88;;;8.97;76.73
35892;BME280;21993;42.672;23.296;2023-03-23T06:29:00;94808.22;;;9.08;76.22
35892;BME280;21993;42.672;23.296;2023-03-23T06:31:26;94806.81;;;9.36;74.46
35892;BME280;21993;42.672;23.296;2023-03-23T06:33:52;94804.59;;;9.52;74.18
35892;BME280;21993;42.672;23.296;2023-03-23T06:36:18;94802.84;;;9.63;73.14
35892;BME280;21993;42.672;23.296;2023-03-23T06:38:44;94815.53;;;9.78;72.53
35892;BME280;21993;42.672;23.296;2023-03-23T06:41:10;94813.03;;;9.77;72.66
35892;BME280;21993;42.672;23.296;2023-03-23T06:43:36;94817.50;;;9.86;72.45
35892;BME280;21993;42.672;23.296;2023-03-23T06:46:05;94818.34;;;9.86;72.60
35892;BME280;21993;42.672;23.296;2023-03-23T06:48:30;94810.66;;;9.74;73.59
35892;BME280;21993;42.672;23.296;2023-03-23T06:50:57;94813.09;;;9.86;73.34
35892;BME280;21993;42.672;23.296;2023-03-23T06:53:22;94821.34;;;10.03;72.58
35892;BME280;21993;42.672;23.296;2023-03-23T06:55:48;94827.00;;;10.08;72.07
35892;BME280;21993;42.672;23.296;2023-03-23T06:58:13;94832.66;;;10.03;72.53
35892;BME280;21993;42.672;23.296;2023-03-23T07:00:39;94829.53;;;10.09;71.92
35892;BME280;21993;42.672;23.296;2023-03-23T07:03:06;94830.25;;;10.21;72.71
35892;BME280;21993;42.672;23.296;2023-03-23T07:05:33;94828.97;;;10.15;72.99
35892;BME280;21993;42.672;23.296;2023-03-23T07:07:59;94830.53;;;10.18;73.34
35892;BME280;21993;42.672;23.296;2023-03-23T07:10:25;94830.13;;;10.43;72.62
35892;BME280;21993;42.672;23.296;2023-03-23T07:12:50;94824.59;;;10.47;71.02
35892;BME280;21993;42.672;23.296;2023-03-23T07:15:15;94827.44;;;10.64;70.43
35892;BME280;21993;42.672;23.296;2023-03-23T07:17:42;94827.03;;;10.69;71.10
35892;BME280;21993;42.672;23.296;2023-03-23T07:20:07;94824.13;;;10.72;71.24
35892;BME280;21993;42.672;23.296;2023-03-23T07:22:34;94823.78;;;10.96;70.68
35892;BME280;21993;42.672;23.296;2023-03-23T07:25:00;94819.06;;;10.80;70.62
35892;BME280;21993;42.672;23.296;2023-03-23T07:27:26;94816.72;;;10.87;71.17
35892;BME280;21993;42.672;23.296;2023-03-23T07:29:51;94828.50;;;11.02;71.03
35892;BME280;21993;42.672;23.296;2023-03-23T07:32:17;94821.88;;;11.08;71.24
35892;BME280;21993;42.672;23.296;2023-03-23T07:34:43;94830.47;;;11.29;70.82
35892;BME280;21993;42.672;23.296;2023-03-23T07:37:09;94828.13;;;11.55;69.23
35892;BME280;21993;42.672;23.296;2023-03-23T07:39:34;94823.84;;;11.64;69.37
35892;BME280;21993;42.672;23.296;2023-03-23T07:42:00;94833.38;;;11.94;67.32
35892;BME280;21993;42.672;23.296;2023-03-23T07:44:26;94826.47;;;12.02;65.46
35892;BME280;21993;42.672;23.296;2023-03-23T07:46:52;94838.25;;;11.89;66.63
35892;BME280;21993;42.672;23.296;2023-03-23T07:49:18;94830.91;;;11.92;67.47
35892;BME280;21993;42.672;23.296;2023-03-23T07:51:44;94836.94;;;12.22;66.82
35892;BME280;21993;42.672;23.296;2023-03-23T07:54:10;94830.25;;;12.37;66.68
35892;BME280;21993;42.672;23.296;2023-03-23T07:56:36;94829.94;;;12.50;65.51
35892;BME280;21993;42.672;23.296;2023-03-23T07:59:03;94824.84;;;12.38;64.70
35892;BME280;21993;42.672;23.296;2023-03-23T08:01:30;94836.81;;;12.60;64.15
35892;BME280;21993;42.672;23.296;2023-03-23T08:03:55;94830.53;;;12.71;63.48
35892;BME280;21993;42.672;23.296;2023-03-23T08:06:26;94833.34;;;12.60;63.84
35892;BME280;21993;42.672;23.296;2023-03-23T08:08:52;94843.00;;;12.79;63.45
35892;BME280;21993;42.672;23.296;2023-03-23T08:11:18;94836.13;;;12.95;61.50
35892;BME280;21993;42.672;23.296;2023-03-23T08:13:47;94837.31;;;13.01;62.37
35892;BME280;21993;42.672;23.296;2023-03-23T08:16:13;94840.25;;;13.26;60.90
35892;BME280;21993;42.672;23.296;2023-03-23T08:18:39;94836.13;;;13.41;60.69
35892;BME280;21993;42.672;23.296;2023-03-23T08:21:06;94829.53;;;13.55;60.15
35892;BME280;21993;42.672;23.296;2023-03-23T08:23:34;94828.69;;;13.72;59.44
35892;BME280;21993;42.672;23.296;2023-03-23T08:26:00;94825.06;;;13.73;59.68
35892;BME280;21993;42.672;23.296;2023-03-23T08:28:26;94828.88;;;13.78;58.88
35892;BME280;21993;42.672;23.296;2023-03-23T08:30:51;94831.81;;;13.93;58.22
35892;BME280;21993;42.672;23.296;2023-03-23T08:33:17;94826.63;;;14.27;56.41
35892;BME280;21993;42.672;23.296;2023-03-23T08:35:42;94827.25;;;14.21;56.51
35892;BME280;21993;42.672;23.296;2023-03-23T08:38:10;94825.50;;;14.12;58.41
35892;BME280;21993;42.672;23.296;2023-03-23T08:40:37;94818.22;;;14.06;57.35
35892;BME280;21993;42.672;23.296;2023-03-23T08:43:05;94820.44;;;14.19;56.06
35892;BME280;21993;42.672;23.296;2023-03-23T08:45:30;94821.00;;;14.48;55.78
35892;BME280;21993;42.672;23.296;2023-03-23T08:47:56;94815.50;;;14.42;55.40
35892;BME280;21993;42.672;23.296;2023-03-23T08:50:27;94818.50;;;14.73;54.37
35892;BME280;21993;42.672;23.296;2023-03-23T08:52:53;94827.63;;;14.86;53.22
35892;BME280;21993;42.672;23.296;2023-03-23T08:55:20;94820.72;;;14.93;52.85
35892;BME280;21993;42.672;23.296;2023-03-23T08:57:47;94817.88;;;14.87;52.84
35892;BME280;21993;42.672;23.296;2023-03-23T09:00:17;94815.59;;;14.92;53.12
35892;BME280;21993;42.672;23.296;2023-03-23T09:02:48;94822.00;;;14.81;50.71
35892;BME280;21993;42.672;23.296;2023-03-23T09:05:20;94825.72;;;14.71;51.22
35892;BME280;21993;42.672;23.296;2023-03-23T09:07:49;94822.50;;;14.85;52.09
35892;BME280;21993;42.672;23.296;2023-03-23T09:10:15;94820.69;;;14.85;49.28
35892;BME280;21993;42.672;23.296;2023-03-23T09:12:42;94820.81;;;15.18;48.75
35892;BME280;21993;42.672;23.296;2023-03-23T09:15:10;94826.00;;;14.93;49.60
35892;BME280;21993;42.672;23.296;2023-03-23T09:17:40;94815.03;;;15.14;48.24
35892;BME280;21993;42.672;23.296;2023-03-23T09:20:07;94823.13;;;15.29;48.08
35892;BME280;21993;42.672;23.296;2023-03-23T09:22:42;94820.38;;;15.39;48.50
35892;BME280;21993;42.672;23.296;2023-03-23T09:25:09;94810.03;;;15.11;48.15
35892;BME280;21993;42.672;23.296;2023-03-23T09:27:36;94807.53;;;15.02;48.21
35892;BME280;21993;42.672;23.296;2023-03-23T09:30:10;94809.03;;;15.04;48.32
35892;BME280;21993;42.672;23.296;2023-03-23T09:32:37;94808.38;;;15.10;49.37
35892;BME280;21993;42.672;23.296;2023-03-23T09:35:04;94805.28;;;15.23;49.80
35892;BME280;21993;42.672;23.296;2023-03-23T09:37:33;94802.19;;;15.52;48.17
35892;BME280;21993;42.672;23.296;2023-03-23T09:40:04;94797.72;;;15.53;47.60
35892;BME280;21993;42.672;23.296;2023-03-23T09:50:34;94806.91;;;15.83;46.93
35892;BME280;21993;42.672;23.296;2023-03-23T09:55:34;94799.44;;;15.94;46.44
35892;BME280;21993;42.672;23.296;2023-03-23T09:58:11;94791.81;;;16.08;46.97
35892;BME280;21993;42.672;23.296;2023-03-23T10:01:00;94789.66;;;16.11;45.88
35892;BME280;21993;42.672;23.296;2023-03-23T10:03:32;94798.94;;;16.07;46.29
35892;BME280;21993;42.672;23.296;2023-03-23T10:05:59;94784.88;;;15.82;47.15
35892;BME280;21993;42.672;23.296;2023-03-23T10:08:27;94787.19;;;15.85;47.49
35892;BME280;21993;42.672;23.296;2023-03-23T10:16:12;94784.53;;;16.10;46.86
35892;BME280;21993;42.672;23.296;2023-03-23T10:19:01;94782.22;;;16.23;46.06
35892;BME280;21993;42.672;23.296;2023-03-23T10:21:30;94782.88;;;16.25;46.02
35892;BME280;21993;42.672;23.296;2023-03-23T10:24:00;94782.88;;;16.25;46.11
35892;BME280;21993;42.672;23.296;2023-03-23T10:29:11;94767.25;;;16.38;44.97
35892;BME280;21993;42.672;23.296;2023-03-23T10:31:47;94773.25;;;16.32;45.16
35892;BME280;21993;42.672;23.296;2023-03-23T10:37:03;94769.63;;;16.25;45.03
35892;BME280;21993;42.672;23.296;2023-03-23T10:39:38;94771.63;;;16.23;44.90
35892;BME280;21993;42.672;23.296;2023-03-23T10:42:08;94779.19;;;16.34;44.85
35892;BME280;21993;42.672;23.296;2023-03-23T10:44:34;94767.97;;;16.24;44.71
35892;BME280;21993;42.672;23.296;2023-03-23T10:47:03;94766.25;;;16.39;44.94
35892;BME280;21993;42.672;23.296;2023-03-23T10:49:57;94771.22;;;16.42;45.26
35892;BME280;21993;42.672;23.296;2023-03-23T10:52:36;94757.44;;;16.55;44.71
35892;BME280;21993;42.672;23.296;2023-03-23T10:55:10;94764.72;;;16.69;44.35
35892;BME280;21993;42.672;23.296;2023-03-23T10:57:38;94768.81;;;16.80;44.18
35892;BME280;21993;42.672;23.296;2023-03-23T11:00:07;94764.72;;;16.69;44.29
35892;BME280;21993;42.672;23.296;2023-03-23T11:02:44;94762.06;;;16.61;44.58
35892;BME280;21993;42.672;23.296;2023-03-23T11:05:37;94760.09;;;16.55;44.69
35892;BME280;21993;42.672;23.296;2023-03-23T11:08:11;94757.38;;;16.79;44.73
35892;BME280;21993;42.672;23.296;2023-03-23T11:10:41;94753.88;;;17.18;43.75
35892;BME280;21993;42.672;23.296;2023-03-23T11:13:13;94742.78;;;17.37;43.89
35892;BME280;21993;42.672;23.296;2023-03-23T11:15:41;94746.47;;;17.59;43.30
35892;BME280;21993;42.672;23.296;2023-03-23T11:18:35;94737.78;;;17.65;42.22
35892;BME280;21993;42.672;23.296;2023-03-23T11:21:01;94738.81;;;17.41;42.41
35892;BME280;21993;42.672;23.296;2023-03-23T11:23:40;94739.66;;;17.57;42.22
35892;BME280;21993;42.672;23.296;2023-03-23T11:28:44;94727.53;;;17.62;41.65
35892;BME280;21993;42.672;23.296;2023-03-23T11:31:11;94718.97;;;17.52;41.95
35892;BME280;21993;42.672;23.296;2023-03-23T11:33:50;94720.09;;;17.35;42.95
35892;BME280;21993;42.672;23.296;2023-03-23T11:36:17;94714.25;;;17.39;42.60
35892;BME280;21993;42.672;23.296;2023-03-23T11:38:43;94711.78;;;17.61;42.02
35892;BME280;21993;42.672;23.296;2023-03-23T11:41:18;94711.59;;;17.62;41.85
35892;BME280;21993;42.672;23.296;2023-03-23T11:43:46;94715.91;;;17.86;41.28
35892;BME280;21993;42.672;23.296;2023-03-23T11:49:01;94707.59;;;18.04;42.11
35892;BME280;21993;42.672;23.296;2023-03-23T11:56:38;94713.63;;;17.83;41.67
35892;BME280;21993;42.672;23.296;2023-03-23T11:59:13;94708.59;;;18.03;40.56
35892;BME280;21993;42.672;23.296;2023-03-23T12:13:17;94694.88;;;18.14;41.31
35892;BME280;21993;42.672;23.296;2023-03-23T12:16:35;94697.06;;;18.40;40.21
35892;BME280;21993;42.672;23.296;2023-03-23T12:19:16;94694.03;;;18.14;40.29
35892;BME280;21993;42.672;23.296;2023-03-23T12:21:55;94693.31;;;18.05;41.07
35892;BME280;21993;42.672;23.296;2023-03-23T12:32:44;94685.25;;;18.43;40.06
35892;BME280;21993;42.672;23.296;2023-03-23T12:46:28;94676.63;;;18.41;40.33
35892;BME280;21993;42.672;23.296;2023-03-23T12:51:50;94670.13;;;18.73;39.35
35892;BME280;21993;42.672;23.296;2023-03-23T12:57:11;94666.53;;;18.66;39.67
35892;BME280;21993;42.672;23.296;2023-03-23T13:02:39;94659.84;;;18.84;39.37
35892;BME280;21993;42.672;23.296;2023-03-23T13:05:11;94661.69;;;18.69;39.67
35892;BME280;21993;42.672;23.296;2023-03-23T13:10:25;94664.06;;;18.79;38.50
35892;BME280;21993;42.672;23.296;2023-03-23T13:12:53;94653.72;;;18.69;38.79
35892;BME280;21993;42.672;23.296;2023-03-23T13:20:51;94653.31;;;18.57;39.47
35892;BME280;21993;42.672;23.296;2023-03-23T13:23:22;94647.56;;;18.54;39.91
35892;BME280;21993;42.672;23.296;2023-03-23T13:28:47;94645.16;;;18.74;39.39
35892;BME280;21993;42.672;23.296;2023-03-23T13:31:16;94643.09;;;18.91;39.10
35892;BME280;21993;42.672;23.296;2023-03-23T13:33:53;94647.00;;;18.73;39.26
35892;BME280;21993;42.672;23.296;2023-03-23T13:36:42;94640.91;;;18.43;40.11
35892;BME280;21993;42.672;23.296;2023-03-23T13:39:20;94638.44;;;18.42;39.78
35892;BME280;21993;42.672;23.296;2023-03-23T13:44:38;94641.44;;;18.68;38.96
35892;BME280;21993;42.672;23.296;2023-03-23T13:50:11;94638.69;;;18.32;39.85
35892;BME280;21993;42.672;23.296;2023-03-23T14:05:43;94631.53;;;18.33;40.31
35892;BME280;21993;42.672;23.296;2023-03-23T14:08:11;94629.72;;;18.33;39.76
35892;BME280;21993;42.672;23.296;2023-03-23T14:10:44;94627.28;;;18.17;40.13
35892;BME280;21993;42.672;23.296;2023-03-23T14:13:21;94625.78;;;18.29;40.20
35892;BME280;21993;42.672;23.296;2023-03-23T14:18:35;94616.72;;;18.23;40.52
35892;BME280;21993;42.672;23.296;2023-03-23T14:21:01;94614.44;;;17.91;40.93
35892;BME280;21993;42.672;23.296;2023-03-23T14:23:31;94610.88;;;17.84;41.23
35892;BME280;21993;42.672;23.296;2023-03-23T14:26:04;94607.13;;;17.93;40.94
35892;BME280;21993;42.672;23.296;2023-03-23T14:28:38;94604.09;;;17.96;41.28
35892;BME280;21993;42.672;23.296;2023-03-23T14:31:05;94611.31;;;18.17;40.42
35892;BME280;21993;42.672;23.296;2023-03-23T14:33:38;94615.44;;;17.90;40.93
35892;BME280;21993;42.672;23.296;2023-03-23T14:36:04;94607.28;;;17.77;40.88
35892;BME280;21993;42.672;23.296;2023-03-23T14:38:30;94612.03;;;17.81;40.72
35892;BME280;21993;42.672;23.296;2023-03-23T14:41:01;94612.13;;;17.73;41.33
35892;BME280;21993;42.672;23.296;2023-03-23T14:43:27;94621.13;;;17.87;41.46
35892;BME280;21993;42.672;23.296;2023-03-23T14:45:55;94618.56;;;17.93;41.41
35892;BME280;21993;42.672;23.296;2023-03-23T14:48:22;94610.50;;;18.02;41.39
35892;BME280;21993;42.672;23.296;2023-03-23T14:50:58;94609.69;;;18.01;41.64
35892;BME280;21993;42.672;23.296;2023-03-23T14:53:30;94615.72;;;17.95;41.44
35892;BME280;21993;42.672;23.296;2023-03-23T14:56:00;94615.09;;;17.93;41.52
35892;BME280;21993;42.672;23.296;2023-03-23T14:58:28;94603.38;;;17.64;42.18
35892;BME280;21993;42.672;23.296;2023-03-23T15:01:12;94602.56;;;17.64;42.45
35892;BME280;21993;42.672;23.296;2023-03-23T15:03:43;94606.81;;;17.73;42.10
35892;BME280;21993;42.672;23.296;2023-03-23T15:06:15;94602.47;;;17.57;42.31